Time;durP1;ratioP1;P1;durP2;ratioP2;P2;SDS_P1;SDS_P2;PMS_P1;PMS_P2;Temp;Humidity;BMP_temperature;BMP_pressure;BME280_temperature;BME280_humidity;BME280_pressure;Samples;Min_cycle;Max_cycle;Signal;HPM_P1;HPM_P2
2021/01/23 00:01:34;;;;;;;1.63;0.93;;;6.00;99.90;;;;;;4969390;29;20223;-89
2021/01/23 00:04:05;;;;;;;2.33;0.90;;;5.90;99.90;;;;;;4970835;29;20208;-90
2021/01/23 00:06:36;;;;;;;1.93;0.77;;;5.80;99.90;;;;;;4974734;28;20323;-89
2021/01/23 00:09:21;;;;;;;1.43;0.80;;;5.70;99.90;;;;;;4970461;29;20210;-90
2021/01/23 00:12:01;;;;;;;1.27;0.90;;;5.70;99.90;;;;;;4974919;28;20594;-89
2021/01/23 00:14:31;;;;;;;2.90;0.70;;;5.60;99.90;;;;;;4990893;28;20219;-90
2021/01/23 00:17:04;;;;;;;1.43;0.80;;;5.60;99.90;;;;;;4991372;28;20256;-88
2021/01/23 00:19:35;;;;;;;2.23;0.83;;;5.50;99.90;;;;;;4989498;28;20211;-90
2021/01/23 00:22:06;;;;;;;4.20;0.90;;;5.40;99.90;;;;;;4990116;28;20210;-90
2021/01/23 00:24:37;;;;;;;7.90;1.40;;;5.50;99.90;;;;;;4989244;28;20203;-88
2021/01/23 00:27:13;;;;;;;1.53;0.70;;;5.30;99.90;;;;;;4972449;28;20218;-90
2021/01/23 00:29:44;;;;;;;0.67;0.63;;;5.30;99.90;;;;;;4988942;28;20257;-89
2021/01/23 00:32:16;;;;;;;2.03;0.80;;;5.20;99.90;;;;;;4972014;28;20265;-89
2021/01/23 00:34:50;;;;;;;2.30;1.07;;;5.20;99.90;;;;;;4989366;28;20213;-88
2021/01/23 00:37:35;;;;;;;1.70;0.90;;;5.20;99.90;;;;;;4990472;28;20230;-89
2021/01/23 00:40:08;;;;;;;1.97;1.10;;;5.10;99.90;;;;;;4987382;28;20329;-89
2021/01/23 00:42:44;;;;;;;2.17;0.97;;;5.10;99.90;;;;;;4976875;28;20658;-88
2021/01/23 00:45:17;;;;;;;2.50;0.77;;;5.10;99.90;;;;;;4977597;28;20202;-89
2021/01/23 00:48:11;;;;;;;1.40;0.93;;;5.00;99.90;;;;;;4974499;28;20217;-89
2021/01/23 00:50:44;;;;;;;1.60;0.90;;;4.90;99.90;;;;;;4991743;28;20219;-90
2021/01/23 00:56:04;;;;;;;2.07;0.73;;;4.70;99.90;;;;;;4993574;28;20262;-88
2021/01/23 00:58:37;;;;;;;2.50;0.80;;;4.60;99.90;;;;;;4995579;28;20238;-88
2021/01/23 01:01:08;;;;;;;1.63;1.13;;;4.60;99.90;;;;;;4980470;28;20242;-88
2021/01/23 01:03:40;;;;;;;2.67;0.70;;;4.50;99.90;;;;;;4980999;28;20199;-90
2021/01/23 01:06:12;;;;;;;2.30;0.90;;;4.40;99.90;;;;;;4997497;28;20207;-89
2021/01/23 01:08:53;;;;;;;1.33;0.80;;;4.40;99.90;;;;;;4995531;28;20209;-89
2021/01/23 01:14:19;;;;;;;1.40;0.83;;;4.20;99.90;;;;;;5015069;27;4488958;-88
2021/01/23 01:16:50;;;;;;;2.00;1.13;;;4.20;99.90;;;;;;5151409;28;20201;-88
2021/01/23 01:22:10;;;;;;;2.03;1.07;;;4.00;99.90;;;;;;5145636;28;20265;-88
2021/01/23 01:24:43;;;;;;;2.20;1.20;;;3.90;99.90;;;;;;5145432;28;20198;-88
2021/01/23 01:27:14;;;;;;;1.80;1.10;;;3.90;99.90;;;;;;5140522;28;20227;-89
2021/01/23 01:29:46;;;;;;;5.43;1.77;;;3.90;99.90;;;;;;5125918;28;20217;-89
2021/01/23 01:32:18;;;;;;;3.53;1.60;;;3.90;99.90;;;;;;5149086;28;20308;-88
2021/01/23 01:34:49;;;;;;;3.03;1.30;;;3.80;99.90;;;;;;5145413;28;20235;-88
2021/01/23 01:37:19;;;;;;;1.70;1.17;;;3.80;99.90;;;;;;5144946;28;20216;-87
2021/01/23 01:39:51;;;;;;;2.73;1.30;;;3.70;99.90;;;;;;5126537;28;20267;-90
2021/01/23 01:42:22;;;;;;;3.00;1.00;;;3.80;99.90;;;;;;5107550;28;20255;-90
2021/01/23 01:45:03;;;;;;;2.83;1.63;;;3.90;99.90;;;;;;5132664;28;20201;-90
2021/01/23 01:56:18;;;;;;;2.13;1.37;;;3.70;99.90;;;;;;5147389;27;20233;-89
2021/01/23 02:05:41;;;;;;;4.00;1.63;;;3.60;99.90;;;;;;5143732;28;20197;-90
2021/01/23 02:17:40;;;;;;;2.60;1.43;;;3.40;99.90;;;;;;5142192;27;20205;-90
2021/01/23 02:20:45;;;;;;;6.33;1.77;;;3.40;99.90;;;;;;5147113;28;20256;-89
2021/01/23 02:36:18;;;;;;;5.67;1.70;;;3.30;99.90;;;;;;5129680;28;20197;-90
2021/01/23 02:38:51;;;;;;;4.00;1.80;;;3.30;99.90;;;;;;5115196;28;20210;-89
2021/01/23 02:41:24;;;;;;;3.47;1.60;;;3.30;99.90;;;;;;5133468;28;20205;-89
2021/01/23 02:43:55;;;;;;;4.97;1.67;;;3.20;99.90;;;;;;5133513;28;20214;-89
2021/01/23 02:46:41;;;;;;;3.20;1.57;;;3.20;99.90;;;;;;5129392;28;20220;-89
2021/01/23 02:49:12;;;;;;;4.00;1.70;;;3.10;99.90;;;;;;5131760;28;20286;-91
2021/01/23 02:51:53;;;;;;;3.40;1.93;;;3.10;99.90;;;;;;5116062;28;20206;-91
2021/01/23 02:54:33;;;;;;;3.70;1.93;;;3.00;99.90;;;;;;5129425;28;20236;-91
2021/01/23 02:57:06;;;;;;;4.17;1.83;;;3.00;99.90;;;;;;5111102;28;20353;-91
2021/01/23 03:15:41;;;;;;;3.93;1.80;;;2.70;99.90;;;;;;5064924;28;20192;-92
2021/01/23 03:18:13;;;;;;;2.37;1.73;;;2.60;99.90;;;;;;5072127;28;20202;-93
2021/01/23 03:20:45;;;;;;;5.13;2.30;;;2.60;99.90;;;;;;5055822;28;20192;-92
2021/01/23 03:23:16;;;;;;;4.83;1.97;;;2.50;99.90;;;;;;5076332;28;20200;-94
2021/01/23 03:25:47;;;;;;;5.03;1.80;;;2.50;99.90;;;;;;5075542;28;20224;-91
2021/01/23 03:28:18;;;;;;;3.43;1.77;;;2.50;99.90;;;;;;5076146;28;20196;-91
2021/01/23 03:30:52;;;;;;;3.60;2.07;;;2.40;99.90;;;;;;5078870;28;20200;-92
2021/01/23 03:38:48;;;;;;;3.13;1.93;;;2.40;99.90;;;;;;5507657;22;20295;-90
2021/01/23 03:41:19;;;;;;;2.87;1.90;;;2.30;99.90;;;;;;5058699;28;20212;-90
2021/01/23 03:43:51;;;;;;;3.20;1.83;;;2.30;99.90;;;;;;5068599;28;20270;-91
2021/01/23 03:46:25;;;;;;;2.87;2.00;;;2.30;99.90;;;;;;5069601;28;20204;-90
2021/01/23 03:48:56;;;;;;;3.40;2.00;;;2.20;99.90;;;;;;5057666;28;20228;-92
2021/01/23 03:51:27;;;;;;;2.87;1.70;;;2.20;99.90;;;;;;5057475;28;20277;-90
2021/01/23 03:53:57;;;;;;;3.97;1.90;;;2.10;99.90;;;;;;5065740;28;20223;-93
2021/01/23 03:56:30;;;;;;;3.10;2.10;;;2.10;99.90;;;;;;5053832;28;20196;-94
2021/01/23 04:17:06;;;;;;;5.13;3.00;;;1.80;99.90;;;;;;5066249;28;20211;-91
2021/01/23 04:22:43;;;;;;;5.63;3.07;;;1.70;99.90;;;;;;5066158;28;20207;-90
2021/01/23 04:25:15;;;;;;;5.47;2.70;;;1.70;99.90;;;;;;5066468;28;20205;-91
2021/01/23 04:30:45;;;;;;;7.30;2.93;;;1.60;99.90;;;;;;5066458;28;20260;-90
2021/01/23 04:33:19;;;;;;;5.50;3.00;;;1.50;99.90;;;;;;5066215;28;20254;-90
2021/01/23 04:35:49;;;;;;;7.13;3.40;;;1.50;99.90;;;;;;5059138;28;20271;-92
2021/01/23 04:38:21;;;;;;;5.43;3.30;;;1.50;99.90;;;;;;5048998;28;20209;-90
2021/01/23 04:43:49;;;;;;;5.27;3.07;;;1.50;99.90;;;;;;5037012;28;20681;-91
2021/01/23 04:46:19;;;;;;;5.40;3.43;;;1.50;99.90;;;;;;5036853;28;20208;-91
2021/01/23 04:49:20;;;;;;;5.53;3.63;;;1.50;99.90;;;;;;5044147;28;20227;-91
2021/01/23 04:51:57;;;;;;;4.80;3.80;;;1.50;99.90;;;;;;5048606;28;20252;-90
2021/01/23 04:54:31;;;;;;;8.07;3.37;;;1.40;99.90;;;;;;5059520;28;20562;-89
2021/01/23 04:57:04;;;;;;;6.33;3.50;;;1.40;99.90;;;;;;5059022;28;20241;-92
2021/01/23 05:02:22;;;;;;;4.97;2.87;;;1.40;99.90;;;;;;5044494;28;20203;-93
2021/01/23 05:04:57;;;;;;;7.13;3.60;;;1.40;99.90;;;;;;5052898;28;20203;-93
2021/01/23 05:07:30;;;;;;;8.47;3.13;;;1.40;99.90;;;;;;5066172;28;20241;-92
2021/01/23 05:10:14;;;;;;;7.67;3.80;;;1.30;99.90;;;;;;5045638;28;20530;-93
2021/01/23 05:12:49;;;;;;;6.80;3.47;;;1.30;99.90;;;;;;5039113;28;20240;-93
2021/01/23 05:15:26;;;;;;;7.47;3.90;;;1.30;99.90;;;;;;5055233;28;20627;-93
2021/01/23 05:17:58;;;;;;;6.20;4.13;;;1.30;99.90;;;;;;5053333;28;20231;-91
2021/01/23 05:20:38;;;;;;;7.57;4.17;;;1.20;99.90;;;;;;5053027;28;20640;-90
2021/01/23 05:23:12;;;;;;;6.80;3.97;;;1.20;99.90;;;;;;5056066;28;20208;-92
2021/01/23 05:25:43;;;;;;;5.40;3.87;;;1.20;99.90;;;;;;5055280;28;20808;-91
2021/01/23 05:28:14;;;;;;;8.37;4.20;;;1.10;99.90;;;;;;5055696;28;20580;-93
2021/01/23 05:33:33;;;;;;;8.93;3.27;;;1.10;99.90;;;;;;5051472;28;20269;-91
2021/01/23 05:36:06;;;;;;;7.17;2.70;;;1.10;99.90;;;;;;5065003;28;20206;-92
2021/01/23 05:38:39;;;;;;;4.33;3.10;;;1.10;99.90;;;;;;5038767;28;20216;-90
2021/01/23 05:41:15;;;;;;;5.13;3.03;;;1.00;99.90;;;;;;5056329;28;20212;-90
2021/01/23 05:43:48;;;;;;;5.37;2.73;;;1.00;99.90;;;;;;5055132;28;20840;-92
2021/01/23 05:46:20;;;;;;;6.80;3.30;;;1.00;99.90;;;;;;5056887;28;20200;-91
2021/01/23 05:48:52;;;;;;;7.03;3.80;;;1.00;99.90;;;;;;5057072;28;20291;-92
2021/01/23 05:51:23;;;;;;;5.70;3.60;;;1.00;99.90;;;;;;5057219;28;20220;-90
2021/01/23 05:53:56;;;;;;;6.37;4.60;;;1.00;99.90;;;;;;5046443;28;20249;-91
2021/01/23 05:56:28;;;;;;;5.07;2.90;;;0.90;99.90;;;;;;5057170;28;20263;-91
2021/01/23 05:59:00;;;;;;;6.40;3.77;;;0.90;99.90;;;;;;5074649;28;20342;-91
2021/01/23 06:01:31;;;;;;;6.07;4.37;;;0.80;99.90;;;;;;5071392;28;20229;-90
2021/01/23 06:04:04;;;;;;;7.60;5.00;;;0.80;99.90;;;;;;4706188;28;9999809;-91
2021/01/23 06:06:51;;;;;;;9.23;6.47;;;0.80;99.90;;;;;;5058821;28;20242;-92
2021/01/23 06:09:39;;;;;;;10.60;7.57;;;0.80;99.90;;;;;;5061115;28;20234;-92
2021/01/23 06:12:44;;;;;;;9.27;7.37;;;0.80;99.90;;;;;;5060326;28;20204;-92
2021/01/23 06:15:36;;;;;;;10.77;7.33;;;0.70;99.90;;;;;;5039941;28;20209;-91
2021/01/23 06:18:09;;;;;;;11.70;7.83;;;0.70;99.90;;;;;;5045153;28;20217;-92
2021/01/23 06:20:53;;;;;;;13.57;7.87;;;0.60;99.90;;;;;;5053616;28;20343;-92
2021/01/23 06:23:44;;;;;;;10.70;7.30;;;0.60;99.90;;;;;;5073073;28;20262;-93
2021/01/23 06:26:17;;;;;;;15.23;7.53;;;0.60;99.90;;;;;;5062018;28;20283;-92
2021/01/23 06:28:51;;;;;;;15.03;9.50;;;0.60;99.90;;;;;;5057081;28;20200;-90
2021/01/23 06:31:34;;;;;;;13.27;8.77;;;0.50;99.90;;;;;;5060039;28;20200;-92
2021/01/23 06:34:30;;;;;;;14.60;8.43;;;0.50;99.90;;;;;;5066279;28;20217;-90
2021/01/23 06:37:23;;;;;;;11.77;7.77;;;0.40;99.90;;;;;;5073244;28;20214;-92
2021/01/23 06:40:09;;;;;;;12.37;7.57;;;0.40;99.90;;;;;;5056966;28;20208;-92
2021/01/23 06:42:51;;;;;;;15.53;7.27;;;0.50;99.90;;;;;;5056406;28;20217;-91
2021/01/23 06:45:24;;;;;;;16.43;7.73;;;0.40;99.90;;;;;;5097880;22;20289;-91
2021/01/23 06:47:57;;;;;;;14.17;7.43;;;0.40;99.90;;;;;;5014172;28;20232;-93
2021/01/23 06:50:39;;;;;;;13.70;7.10;;;0.40;99.90;;;;;;5006121;28;20301;-92
2021/01/23 06:53:21;;;;;;;9.90;6.57;;;0.40;99.90;;;;;;5005617;28;20233;-92
2021/01/23 06:55:53;;;;;;;10.33;6.40;;;0.30;99.90;;;;;;4985954;28;20209;-91
2021/01/23 06:58:27;;;;;;;12.47;5.97;;;0.40;99.90;;;;;;4985765;28;20210;-92
2021/01/23 07:00:58;;;;;;;9.10;5.10;;;0.40;99.90;;;;;;4984753;28;20211;-92
2021/01/23 07:03:29;;;;;;;7.60;4.73;;;0.30;99.90;;;;;;4994140;28;20266;-92
2021/01/23 07:06:01;;;;;;;7.73;4.63;;;0.30;99.90;;;;;;5004371;28;20217;-92
2021/01/23 07:08:34;;;;;;;7.17;4.30;;;0.30;99.90;;;;;;5004306;28;20211;-91
2021/01/23 07:11:13;;;;;;;6.57;3.70;;;0.30;99.90;;;;;;5014928;28;20692;-92
2021/01/23 07:14:01;;;;;;;6.90;4.00;;;0.30;99.90;;;;;;4999857;28;20228;-93
2021/01/23 07:16:33;;;;;;;10.17;3.70;;;0.30;99.90;;;;;;4999417;28;20360;-92
2021/01/23 07:19:07;;;;;;;8.77;4.23;;;0.30;99.90;;;;;;4999592;28;20206;-91
2021/01/23 07:21:41;;;;;;;9.70;4.30;;;0.20;99.90;;;;;;4981582;28;20217;-92
2021/01/23 07:24:13;;;;;;;12.47;4.87;;;0.30;99.90;;;;;;4982919;28;20206;-93
2021/01/23 07:26:44;;;;;;;7.93;4.40;;;0.30;99.90;;;;;;4999443;28;20206;-91
2021/01/23 07:29:16;;;;;;;9.80;4.87;;;0.30;99.90;;;;;;4998950;28;20206;-91
2021/01/23 07:31:47;;;;;;;7.73;4.30;;;0.30;99.90;;;;;;4997896;28;20210;-92
2021/01/23 07:34:18;;;;;;;6.13;3.60;;;0.30;99.90;;;;;;4982681;28;20274;-92
2021/01/23 07:36:49;;;;;;;6.37;3.77;;;0.30;99.90;;;;;;4998504;28;20202;-92
2021/01/23 07:39:21;;;;;;;5.07;3.57;;;0.20;99.90;;;;;;4999088;28;20203;-92
2021/01/23 07:41:54;;;;;;;6.77;4.30;;;0.20;99.90;;;;;;4998662;28;20257;-93
2021/01/23 07:44:28;;;;;;;5.37;3.77;;;0.20;99.90;;;;;;4998742;28;20217;-91
2021/01/23 07:47:00;;;;;;;5.93;4.10;;;0.20;99.90;;;;;;4999032;28;20200;-92
2021/01/23 07:49:31;;;;;;;6.47;4.00;;;0.20;99.90;;;;;;4998806;28;20208;-92
2021/01/23 07:52:07;;;;;;;7.20;3.63;;;0.20;99.90;;;;;;5001140;28;20206;-92
2021/01/23 07:54:51;;;;;;;7.70;4.27;;;0.20;99.90;;;;;;5000095;28;20262;-92
2021/01/23 07:57:22;;;;;;;5.30;3.50;;;0.20;99.90;;;;;;5000020;28;20293;-92
2021/01/23 07:59:54;;;;;;;5.50;3.10;;;0.30;99.90;;;;;;4998729;28;20202;-92
2021/01/23 08:02:24;;;;;;;5.73;3.37;;;0.20;99.90;;;;;;5001142;28;20233;-91
2021/01/23 08:04:57;;;;;;;12.70;6.63;;;0.20;99.90;;;;;;4999025;28;20246;-91
2021/01/23 08:07:29;;;;;;;9.13;4.73;;;0.10;99.90;;;;;;4999344;28;20217;-92
2021/01/23 08:10:11;;;;;;;11.23;4.87;;;0.10;99.90;;;;;;5000413;28;20295;-96
2021/01/23 08:12:56;;;;;;;6.47;5.13;;;0.10;99.90;;;;;;5016661;28;20222;-92
2021/01/23 08:15:32;;;;;;;8.33;4.07;;;0.00;99.90;;;;;;5015747;28;20207;-92
2021/01/23 08:18:18;;;;;;;8.07;3.77;;;-0.10;99.90;;;;;;5009968;28;20411;-93
2021/01/23 08:20:50;;;;;;;5.73;3.90;;;-0.10;99.90;;;;;;5009711;28;20216;-94
2021/01/23 08:23:24;;;;;;;6.67;4.60;;;-0.20;99.90;;;;;;4998223;28;20213;-92
2021/01/23 08:25:55;;;;;;;10.40;4.63;;;-0.30;99.90;;;;;;4998354;28;20206;-93
2021/01/23 08:28:36;;;;;;;9.33;4.13;;;-0.30;99.90;;;;;;4998372;28;20554;-92
2021/01/23 08:31:17;;;;;;;19.80;12.70;;;-0.30;99.90;;;;;;4997103;28;20229;-92
2021/01/23 08:33:52;;;;;;;14.07;8.70;;;-0.30;99.90;;;;;;4997297;28;20235;-92
2021/01/23 08:36:23;;;;;;;9.07;6.20;;;-0.30;99.90;;;;;;4997109;28;20232;-92
2021/01/23 08:39:00;;;;;;;39.77;16.60;;;-0.30;99.90;;;;;;4997433;28;20204;-93
2021/01/23 08:41:33;;;;;;;10.17;4.40;;;-0.30;99.90;;;;;;4997306;28;20580;-93
2021/01/23 08:44:04;;;;;;;10.50;5.83;;;-0.30;99.90;;;;;;4980830;28;20277;-92
2021/01/23 08:46:36;;;;;;;11.20;6.30;;;-0.40;99.90;;;;;;4980271;28;20695;-93
2021/01/23 08:49:06;;;;;;;7.50;4.17;;;-0.30;99.90;;;;;;4995786;28;20742;-94
2021/01/23 08:51:37;;;;;;;5.07;3.07;;;-0.40;99.90;;;;;;4995741;28;20230;-93
2021/01/23 08:54:08;;;;;;;5.10;3.37;;;-0.30;99.90;;;;;;4979796;28;20978;-94
2021/01/23 08:56:39;;;;;;;5.13;3.60;;;-0.30;99.90;;;;;;4996318;28;20207;-92
2021/01/23 08:59:10;;;;;;;10.33;3.30;;;-0.40;99.90;;;;;;4996978;28;20211;-92
2021/01/23 09:01:42;;;;;;;5.83;3.13;;;-0.40;99.90;;;;;;4996019;28;20213;-93
2021/01/23 09:04:13;;;;;;;6.90;3.40;;;-0.40;99.90;;;;;;4997211;28;20215;-93
2021/01/23 09:06:44;;;;;;;12.37;4.20;;;-0.40;99.90;;;;;;4998603;28;20221;-93
2021/01/23 09:09:15;;;;;;;9.87;4.23;;;-0.40;99.90;;;;;;4996937;28;20229;-93
2021/01/23 09:11:46;;;;;;;6.47;3.60;;;-0.40;99.90;;;;;;4996162;28;20215;-92
2021/01/23 09:14:17;;;;;;;5.77;3.77;;;-0.40;99.90;;;;;;4997050;28;20262;-93
2021/01/23 09:16:49;;;;;;;6.27;3.37;;;-0.50;99.90;;;;;;4998096;28;20212;-92
2021/01/23 09:19:21;;;;;;;5.73;3.23;;;-0.50;99.90;;;;;;4997652;28;20942;-93
2021/01/23 09:21:51;;;;;;;5.77;3.03;;;-0.50;99.90;;;;;;4997357;28;20203;-93
2021/01/23 09:24:24;;;;;;;6.70;3.50;;;-0.50;99.90;;;;;;4996018;28;20250;-91
2021/01/23 09:26:55;;;;;;;5.47;2.90;;;-0.50;99.90;;;;;;4998251;28;20230;-93
2021/01/23 09:29:28;;;;;;;5.47;3.10;;;-0.50;99.90;;;;;;5011581;28;20657;-92
2021/01/23 09:32:01;;;;;;;5.90;2.93;;;-0.50;99.90;;;;;;4998461;28;20212;-92
2021/01/23 09:34:33;;;;;;;5.10;2.70;;;-0.50;99.90;;;;;;4980500;28;20245;-92
2021/01/23 09:37:04;;;;;;;5.63;2.67;;;-0.50;99.90;;;;;;5000352;28;20283;-92
2021/01/23 09:39:37;;;;;;;6.30;2.93;;;-0.50;99.90;;;;;;4983206;28;20242;-93
2021/01/23 09:42:08;;;;;;;4.83;2.87;;;-0.60;99.90;;;;;;5002308;28;20219;-93
2021/01/23 09:44:39;;;;;;;5.83;3.60;;;-0.60;99.90;;;;;;5000345;28;20245;-92
2021/01/23 09:47:13;;;;;;;9.07;4.10;;;-0.60;99.90;;;;;;4985225;28;20202;-94
2021/01/23 09:49:44;;;;;;;6.83;4.37;;;-0.60;99.90;;;;;;5001826;28;20209;-93
2021/01/23 09:52:15;;;;;;;7.03;4.60;;;-0.70;99.90;;;;;;5001937;28;20231;-92
2021/01/23 09:54:45;;;;;;;9.40;4.47;;;-0.70;99.90;;;;;;4999991;28;20258;-93
2021/01/23 09:57:20;;;;;;;7.53;4.27;;;-0.70;99.90;;;;;;4983347;28;20210;-94
2021/01/23 09:59:50;;;;;;;7.83;5.87;;;-0.70;99.90;;;;;;4999634;28;20290;-93
2021/01/23 10:02:24;;;;;;;7.63;5.23;;;-0.70;99.90;;;;;;4999352;28;20207;-93
2021/01/23 10:04:55;;;;;;;12.17;6.70;;;-0.70;99.90;;;;;;4999839;28;20212;-92
2021/01/23 10:07:25;;;;;;;9.77;6.30;;;-0.70;99.90;;;;;;4999463;28;20235;-93
2021/01/23 10:09:57;;;;;;;9.13;5.23;;;-0.70;99.90;;;;;;4999237;28;20557;-92
2021/01/23 10:12:29;;;;;;;5.63;4.10;;;-0.70;99.90;;;;;;4999782;28;20222;-93
2021/01/23 10:15:00;;;;;;;8.17;4.30;;;-0.80;99.90;;;;;;4999023;28;20231;-93
2021/01/23 10:17:33;;;;;;;5.73;3.50;;;-0.80;99.90;;;;;;5000241;28;20682;-94
2021/01/23 10:20:04;;;;;;;5.70;3.33;;;-0.80;99.90;;;;;;5000497;28;20289;-94
2021/01/23 10:22:35;;;;;;;8.77;5.70;;;-0.90;99.90;;;;;;5010701;28;20202;-92
2021/01/23 10:25:08;;;;;;;15.13;8.63;;;-0.90;99.90;;;;;;5018763;28;20185;-92
2021/01/23 10:27:39;;;;;;;19.43;11.37;;;-0.90;99.90;;;;;;5017600;28;20212;-93
2021/01/23 10:30:11;;;;;;;23.17;12.33;;;-1.00;99.90;;;;;;5003660;28;20219;-93
2021/01/23 10:32:43;;;;;;;20.00;11.63;;;-1.00;99.90;;;;;;5004648;28;20203;-93
2021/01/23 10:35:14;;;;;;;23.70;12.07;;;-1.00;99.90;;;;;;5000409;28;20289;-92
2021/01/23 10:37:46;;;;;;;21.63;12.03;;;-1.00;99.90;;;;;;5000997;28;20213;-93
2021/01/23 10:40:17;;;;;;;18.30;10.53;;;-1.00;99.90;;;;;;4999811;28;20215;-92
2021/01/23 10:42:48;;;;;;;13.83;9.50;;;-1.10;99.90;;;;;;4999190;28;20207;-92
2021/01/23 10:45:18;;;;;;;18.17;9.07;;;-1.10;99.90;;;;;;4998894;28;20285;-95
2021/01/23 10:47:51;;;;;;;13.77;8.87;;;-1.10;99.90;;;;;;4999683;28;20211;-93
2021/01/23 10:50:21;;;;;;;13.53;7.83;;;-1.10;99.90;;;;;;4998746;28;20210;-94
2021/01/23 10:52:53;;;;;;;11.57;6.63;;;-1.10;99.90;;;;;;5000783;28;20208;-93
2021/01/23 10:55:23;;;;;;;9.27;5.93;;;-1.20;99.90;;;;;;5000981;28;20234;-92
2021/01/23 10:57:54;;;;;;;7.37;4.93;;;-1.20;99.90;;;;;;5001024;28;20265;-93
2021/01/23 11:00:25;;;;;;;7.80;4.33;;;-1.20;99.90;;;;;;4998347;28;20211;-93
2021/01/23 11:02:58;;;;;;;8.53;4.33;;;-1.30;99.90;;;;;;4998635;28;20210;-95
2021/01/23 11:05:29;;;;;;;6.73;3.90;;;-1.30;99.90;;;;;;4998755;28;20634;-94
2021/01/23 11:08:01;;;;;;;8.73;3.77;;;-1.30;99.90;;;;;;4998210;28;20272;-92
2021/01/23 11:10:32;;;;;;;9.37;4.13;;;-1.20;99.90;;;;;;4997984;28;20206;-93
2021/01/23 11:13:03;;;;;;;7.23;3.30;;;-1.30;99.90;;;;;;5001275;28;20201;-92
2021/01/23 11:15:33;;;;;;;4.70;3.07;;;-1.30;99.90;;;;;;4998748;28;20255;-92
2021/01/23 11:18:06;;;;;;;8.40;3.70;;;-1.30;99.90;;;;;;4998984;28;20211;-93
2021/01/23 11:20:37;;;;;;;5.23;3.27;;;-1.30;99.90;;;;;;4997914;28;20236;-93
2021/01/23 11:23:07;;;;;;;4.23;2.93;;;-1.30;99.90;;;;;;5007914;28;20740;-93
2021/01/23 11:25:38;;;;;;;6.20;3.50;;;-1.30;99.90;;;;;;5018410;28;20245;-95
2021/01/23 11:28:09;;;;;;;5.07;3.27;;;-1.30;99.90;;;;;;5014874;28;20245;-93
2021/01/23 11:30:40;;;;;;;7.90;3.57;;;-1.30;99.90;;;;;;4998443;28;20254;-94
2021/01/23 11:33:12;;;;;;;8.87;4.27;;;-1.30;99.90;;;;;;4998580;28;20214;-93
2021/01/23 11:35:44;;;;;;;6.80;3.53;;;-1.40;99.90;;;;;;4998685;28;20245;-92
2021/01/23 11:38:16;;;;;;;6.23;3.60;;;-1.40;99.90;;;;;;4998682;28;20214;-92
2021/01/23 11:40:47;;;;;;;10.30;4.17;;;-1.30;99.90;;;;;;4998262;28;20278;-93
2021/01/23 11:43:18;;;;;;;6.10;3.87;;;-1.30;99.90;;;;;;4982039;28;20207;-91
2021/01/23 11:45:48;;;;;;;5.50;4.40;;;-1.30;99.90;;;;;;5000626;28;20225;-93
2021/01/23 11:48:24;;;;;;;8.10;4.13;;;-1.30;99.90;;;;;;5001188;28;20226;-93
2021/01/23 11:50:55;;;;;;;6.97;3.83;;;-1.30;99.90;;;;;;5000575;28;20236;-94
2021/01/23 11:53:25;;;;;;;7.60;4.33;;;-1.40;99.90;;;;;;5000819;28;20225;-92
2021/01/23 11:55:56;;;;;;;8.40;4.27;;;-1.40;99.90;;;;;;5001476;28;20659;-92
2021/01/23 11:58:27;;;;;;;8.93;4.80;;;-1.40;99.90;;;;;;4997791;28;20763;-94
2021/01/23 12:00:57;;;;;;;8.43;4.70;;;-1.40;99.90;;;;;;5001089;28;20218;-94
2021/01/23 12:03:30;;;;;;;6.57;4.77;;;-1.30;99.90;;;;;;4999491;28;20198;-94
2021/01/23 12:06:01;;;;;;;6.30;4.07;;;-1.30;99.90;;;;;;4999521;28;20242;-91
2021/01/23 12:08:32;;;;;;;4.70;3.80;;;-1.30;99.90;;;;;;5001721;28;20284;-95
2021/01/23 12:11:02;;;;;;;8.47;3.77;;;-1.30;99.90;;;;;;5001534;28;20347;-91
2021/01/23 12:13:33;;;;;;;6.33;3.70;;;-1.30;99.90;;;;;;4999377;28;20202;-94
2021/01/23 12:16:05;;;;;;;5.90;4.20;;;-1.30;99.90;;;;;;5001674;28;20211;-93
2021/01/23 12:18:37;;;;;;;10.50;3.90;;;-1.40;99.90;;;;;;4999565;28;20357;-93
2021/01/23 12:21:08;;;;;;;5.83;3.33;;;-1.40;99.90;;;;;;5001354;28;20218;-94
2021/01/23 12:23:37;;;;;;;5.03;3.30;;;-1.40;99.90;;;;;;5015066;28;20198;-94
2021/01/23 12:26:08;;;;;;;7.53;3.63;;;-1.40;99.90;;;;;;5016702;28;20206;-93
2021/01/23 12:28:39;;;;;;;6.10;3.93;;;-1.40;99.90;;;;;;5016466;28;20197;-93
2021/01/23 12:31:09;;;;;;;6.50;3.50;;;-1.50;99.90;;;;;;4999386;28;20190;-93
2021/01/23 12:33:42;;;;;;;5.93;3.40;;;-1.50;99.90;;;;;;5016779;28;20214;-92
2021/01/23 12:36:12;;;;;;;3.77;3.10;;;-1.50;99.90;;;;;;5015552;28;20195;-93
2021/01/23 12:38:43;;;;;;;6.93;4.47;;;-1.40;99.90;;;;;;5010331;28;20206;-92
2021/01/23 12:41:14;;;;;;;11.70;5.87;;;-1.40;99.90;;;;;;5007682;28;20241;-94
2021/01/23 12:43:47;;;;;;;12.37;5.00;;;-1.40;99.90;;;;;;5005559;28;20237;-93
2021/01/23 12:46:20;;;;;;;14.17;6.07;;;-1.30;99.90;;;;;;5007355;28;20217;-94
2021/01/23 12:48:53;;;;;;;11.53;6.60;;;-1.30;99.90;;;;;;5011798;28;20269;-93
2021/01/23 12:51:23;;;;;;;10.43;5.97;;;-1.30;99.90;;;;;;5009320;28;20258;-92
2021/01/23 12:53:55;;;;;;;9.00;5.30;;;-1.30;99.90;;;;;;5132358;22;20317;-94
2021/01/23 12:56:25;;;;;;;8.03;4.87;;;-1.30;99.90;;;;;;5029258;28;20193;-94
2021/01/23 12:58:56;;;;;;;10.30;4.80;;;-1.30;99.90;;;;;;5011272;28;20278;-93
2021/01/23 13:01:28;;;;;;;9.60;5.13;;;-1.40;99.90;;;;;;4993534;28;20215;-93
2021/01/23 13:04:03;;;;;;;7.93;5.40;;;-1.40;99.90;;;;;;5010785;28;20241;-95
2021/01/23 13:06:34;;;;;;;8.67;4.57;;;-1.40;99.90;;;;;;5021403;28;20231;-93
2021/01/23 13:09:07;;;;;;;8.80;4.60;;;-1.40;99.90;;;;;;5008771;28;20273;-93
2021/01/23 13:11:38;;;;;;;8.40;4.73;;;-1.50;99.90;;;;;;5002929;28;20199;-93
2021/01/23 13:14:09;;;;;;;8.93;4.63;;;-1.50;99.90;;;;;;5002867;28;20251;-95
2021/01/23 13:16:40;;;;;;;8.60;5.00;;;-1.50;99.90;;;;;;5018873;28;20563;-94
2021/01/23 13:19:13;;;;;;;6.33;4.57;;;-1.60;99.90;;;;;;5018115;28;20207;-93
2021/01/23 13:21:44;;;;;;;12.63;5.00;;;-1.60;99.90;;;;;;5017282;28;20213;-92
2021/01/23 13:24:15;;;;;;;8.23;5.00;;;-1.70;99.90;;;;;;5017603;28;20213;-93
2021/01/23 13:26:46;;;;;;;9.47;5.43;;;-1.60;99.90;;;;;;5018385;28;20221;-94
2021/01/23 13:29:19;;;;;;;8.93;5.23;;;-1.60;99.90;;;;;;5017836;28;20212;-93
2021/01/23 13:31:50;;;;;;;8.60;5.27;;;-1.70;99.90;;;;;;5017583;28;20206;-93
2021/01/23 13:34:23;;;;;;;9.37;4.97;;;-1.70;99.90;;;;;;5019984;28;20229;-92
2021/01/23 13:36:53;;;;;;;9.30;5.27;;;-1.60;99.90;;;;;;5018460;28;20206;-93
2021/01/23 13:39:23;;;;;;;10.60;5.40;;;-1.60;99.90;;;;;;5006965;28;20232;-93
2021/01/23 13:41:54;;;;;;;9.00;5.40;;;-1.70;99.90;;;;;;4998630;28;20203;-92
2021/01/23 13:44:25;;;;;;;9.00;5.33;;;-1.60;99.90;;;;;;4998252;28;20237;-94
2021/01/23 13:46:56;;;;;;;8.60;4.90;;;-1.50;99.90;;;;;;4998828;28;20250;-95
2021/01/23 13:49:28;;;;;;;6.63;4.83;;;-1.50;99.90;;;;;;5009369;28;20229;-91
2021/01/23 13:51:58;;;;;;;7.60;4.73;;;-1.40;99.90;;;;;;5016718;28;20263;-93
2021/01/23 13:54:29;;;;;;;7.13;4.60;;;-1.40;99.90;;;;;;5016959;28;20285;-92
2021/01/23 13:57:01;;;;;;;6.37;4.90;;;-1.30;99.90;;;;;;5017011;28;20214;-92
2021/01/23 13:59:32;;;;;;;6.67;4.57;;;-1.20;99.90;;;;;;5000284;28;20218;-94
2021/01/23 14:02:03;;;;;;;7.50;4.70;;;-1.10;99.90;;;;;;5016071;28;20238;-93
2021/01/23 14:04:36;;;;;;;9.27;4.10;;;-1.00;99.90;;;;;;5016466;28;20209;-93
2021/01/23 14:07:07;;;;;;;8.37;4.47;;;-0.90;99.90;;;;;;5016125;28;20213;-93
2021/01/23 14:09:37;;;;;;;10.07;5.20;;;-0.80;99.90;;;;;;4999588;28;20214;-92
2021/01/23 14:12:09;;;;;;;18.13;5.57;;;-0.80;99.90;;;;;;5016437;28;20229;-93
2021/01/23 14:14:39;;;;;;;33.27;6.23;;;-0.70;99.90;;;;;;5016036;28;20784;-93
2021/01/23 14:17:12;;;;;;;30.97;6.53;;;-0.70;99.90;;;;;;5016688;28;20210;-93
2021/01/23 14:19:44;;;;;;;24.63;6.47;;;-0.70;99.90;;;;;;5000271;28;20304;-92
2021/01/23 14:22:15;;;;;;;27.43;6.77;;;-0.70;99.90;;;;;;5019519;28;20217;-93
2021/01/23 14:24:47;;;;;;;42.00;8.07;;;-0.70;99.90;;;;;;5020389;28;20215;-93
2021/01/23 14:27:18;;;;;;;48.43;7.43;;;-0.60;99.90;;;;;;5003895;28;20205;-94
2021/01/23 14:29:48;;;;;;;17.20;6.23;;;-0.60;99.90;;;;;;5020738;28;20241;-93
2021/01/23 14:32:20;;;;;;;41.70;6.93;;;-0.60;99.90;;;;;;5021048;28;20207;-92
2021/01/23 14:34:51;;;;;;;38.23;8.10;;;-0.60;99.90;;;;;;5022828;28;20224;-94
2021/01/23 14:37:22;;;;;;;26.57;6.93;;;-0.60;99.90;;;;;;5022220;28;20583;-93
2021/01/23 14:39:53;;;;;;;62.40;7.70;;;-0.60;99.90;;;;;;5010442;28;20206;-93
2021/01/23 14:42:25;;;;;;;43.00;7.57;;;-0.60;99.90;;;;;;5035381;28;20191;-93
2021/01/23 14:44:56;;;;;;;30.50;7.77;;;-0.50;99.90;;;;;;5016134;28;20208;-94
2021/01/23 14:47:27;;;;;;;63.67;9.60;;;-0.50;99.90;;;;;;5012276;28;20260;-93
2021/01/23 14:49:59;;;;;;;18.93;8.03;;;-0.50;99.90;;;;;;5006388;28;20677;-95
2021/01/23 14:52:31;;;;;;;23.73;7.00;;;-0.50;99.90;;;;;;5009089;28;20202;-93
2021/01/23 14:55:01;;;;;;;17.83;6.63;;;-0.50;99.90;;;;;;5003912;28;20243;-93
2021/01/23 14:57:32;;;;;;;34.13;6.57;;;-0.50;99.90;;;;;;5021406;28;20207;-92
2021/01/23 15:00:03;;;;;;;56.50;6.53;;;-0.50;99.90;;;;;;5021123;28;20211;-94